Time;durP1;ratioP1;P1;durP2;ratioP2;P2;SDS_P1;SDS_P2;PMS_P1;PMS_P2;Temp;Humidity;BMP_temperature;BMP_pressure;BME280_temperature;BME280_humidity;BME280_pressure;Samples;Min_cycle;Max_cycle;Signal;HPM_P1;HPM_P2
2021/08/12 00:01:21;;;;;;;9.10;8.30;;;18.40;1.00;;;;;;5086171;28;20436;-58
2021/08/12 00:03:46;;;;;;;9.90;9.00;;;18.40;1.00;;;;;;5082511;28;20779;-58
2021/08/12 00:06:12;;;;;;;10.23;8.87;;;18.40;1.00;;;;;;5088704;28;20532;-58
2021/08/12 00:08:38;;;;;;;9.23;8.43;;;18.40;1.00;;;;;;5087678;28;20210;-57
2021/08/12 00:11:05;;;;;;;9.60;8.57;;;18.30;1.00;;;;;;5075142;28;20443;-59
2021/08/12 00:13:31;;;;;;;9.10;8.40;;;18.30;1.00;;;;;;5084526;28;20179;-58
2021/08/12 00:15:59;;;;;;;9.00;8.20;;;18.20;1.00;;;;;;5085044;28;20457;-58
2021/08/12 00:18:25;;;;;;;9.97;9.07;;;18.10;1.00;;;;;;5084430;28;20433;-58
2021/08/12 00:20:50;;;;;;;10.50;9.60;;;18.20;1.00;;;;;;5085767;28;20855;-58
2021/08/12 00:23:16;;;;;;;8.73;7.93;;;18.10;1.00;;;;;;5090171;28;20237;-57
2021/08/12 00:25:42;;;;;;;9.33;8.43;;;18.00;1.00;;;;;;5079018;28;20655;-58
2021/08/12 00:28:07;;;;;;;9.47;8.67;;;18.00;1.00;;;;;;5078281;28;20210;-58
2021/08/12 00:30:33;;;;;;;10.40;9.50;;;17.90;1.00;;;;;;5078998;28;20441;-58
2021/08/12 00:32:58;;;;;;;10.60;8.57;;;17.90;1.00;;;;;;5087824;28;20187;-58
2021/08/12 00:35:24;;;;;;;9.77;8.87;;;17.90;1.00;;;;;;5077651;28;20178;-58
2021/08/12 00:37:49;;;;;;;8.70;8.10;;;17.90;1.00;;;;;;5082568;28;20647;-59
2021/08/12 00:40:19;;;;;;;8.70;8.00;;;17.90;1.00;;;;;;5089810;28;20222;-58
2021/08/12 00:42:44;;;;;;;9.43;7.60;;;18.00;1.00;;;;;;5090867;28;20182;-59
2021/08/12 00:45:10;;;;;;;8.50;7.80;;;17.90;1.00;;;;;;5074789;28;20491;-57
2021/08/12 00:47:36;;;;;;;9.30;8.40;;;17.90;1.00;;;;;;5085638;28;20209;-57
2021/08/12 00:50:01;;;;;;;9.03;8.23;;;17.90;1.00;;;;;;5080085;28;20236;-57
2021/08/12 00:52:27;;;;;;;8.83;8.13;;;17.90;1.00;;;;;;5078391;28;20206;-58
2021/08/12 00:54:54;;;;;;;9.40;8.70;;;18.00;1.00;;;;;;5077553;28;20617;-58
2021/08/12 00:57:20;;;;;;;9.77;8.97;;;17.90;1.00;;;;;;5086555;28;20186;-58
2021/08/12 00:59:46;;;;;;;9.70;8.90;;;18.30;1.00;;;;;;5080674;28;20440;-57
2021/08/12 01:02:15;;;;;;;9.50;8.60;;;18.00;1.00;;;;;;5085748;28;20429;-57
2021/08/12 01:04:48;;;;;;;9.23;8.43;;;17.90;1.00;;;;;;5077180;28;20175;-57
2021/08/12 01:07:23;;;;;;;8.50;7.63;;;17.90;1.00;;;;;;5080968;28;20493;-57
2021/08/12 01:09:57;;;;;;;9.60;8.70;;;17.90;1.00;;;;;;5082541;28;20437;-58
2021/08/12 01:12:35;;;;;;;10.50;9.50;;;17.90;1.00;;;;;;5079621;28;20630;-58
2021/08/12 01:15:20;;;;;;;9.20;8.40;;;17.90;1.00;;;;;;5089089;28;20452;-59
2021/08/12 01:17:50;;;;;;;10.27;9.17;;;17.80;1.00;;;;;;5078881;28;20457;-57
2021/08/12 01:20:35;;;;;;;9.60;8.60;;;17.70;1.00;;;;;;5087264;28;20436;-58
2021/08/12 01:23:03;;;;;;;10.57;9.57;;;17.60;1.00;;;;;;5080624;28;20445;-59
2021/08/12 01:25:32;;;;;;;11.90;9.20;;;18.70;1.00;;;;;;5072756;28;20466;-58
2021/08/12 01:28:13;;;;;;;10.23;9.30;;;17.50;1.00;;;;;;5089113;28;20984;-58
2021/08/12 01:31:00;;;;;;;10.33;9.33;;;17.50;1.00;;;;;;5077542;28;20446;-59
2021/08/12 01:33:51;;;;;;;11.20;9.20;;;17.40;1.00;;;;;;5087306;28;20435;-58
2021/08/12 01:36:20;;;;;;;12.23;10.00;;;17.40;1.00;;;;;;5076133;28;20503;-59
2021/08/12 01:38:48;;;;;;;10.43;9.40;;;17.30;1.00;;;;;;5085973;28;20449;-57
2021/08/12 01:41:15;;;;;;;10.80;9.70;;;17.30;1.00;;;;;;5069110;28;20445;-58
2021/08/12 01:43:41;;;;;;;8.87;8.20;;;17.30;1.00;;;;;;5082676;28;20470;-58
2021/08/12 01:46:07;;;;;;;10.40;9.40;;;17.30;1.00;;;;;;5087296;28;20840;-58
2021/08/12 01:48:33;;;;;;;11.07;10.07;;;17.30;1.00;;;;;;5074849;28;20488;-59
2021/08/12 01:50:59;;;;;;;10.10;9.20;;;17.30;1.00;;;;;;5078208;28;20437;-58
2021/08/12 01:53:26;;;;;;;10.97;9.93;;;17.30;1.00;;;;;;5080967;28;20199;-60
2021/08/12 01:55:52;;;;;;;11.37;10.30;;;17.30;1.00;;;;;;5092447;28;20982;-57
2021/08/12 01:58:21;;;;;;;11.90;10.80;;;17.20;1.00;;;;;;5091700;28;20520;-57
2021/08/12 02:00:47;;;;;;;10.87;9.97;;;17.20;1.00;;;;;;5080054;28;20440;-59
2021/08/12 02:03:15;;;;;;;11.23;10.13;;;17.20;1.00;;;;;;5078971;28;20477;-58
2021/08/12 02:05:43;;;;;;;10.40;9.50;;;17.20;1.00;;;;;;5075893;28;20771;-58
2021/08/12 02:08:09;;;;;;;11.30;10.10;;;17.20;1.00;;;;;;5090012;28;20471;-57
2021/08/12 02:10:34;;;;;;;10.10;9.20;;;17.10;1.00;;;;;;5093121;28;20432;-59
2021/08/12 02:13:01;;;;;;;10.63;9.80;;;17.10;1.00;;;;;;5091870;28;20675;-57
2021/08/12 02:15:27;;;;;;;10.70;9.80;;;17.10;1.00;;;;;;5081485;28;20191;-58
2021/08/12 02:17:53;;;;;;;13.30;9.93;;;17.10;1.00;;;;;;5082072;28;20802;-58
2021/08/12 02:20:18;;;;;;;10.27;9.27;;;17.10;1.00;;;;;;5081597;28;20665;-59
2021/08/12 02:22:59;;;;;;;10.73;9.83;;;17.10;1.00;;;;;;5090407;28;20191;-58
2021/08/12 02:25:41;;;;;;;12.20;10.97;;;17.10;1.00;;;;;;5091687;28;20190;-58
2021/08/12 02:28:09;;;;;;;12.47;11.37;;;17.10;1.00;;;;;;5082153;28;20508;-58
2021/08/12 02:30:39;;;;;;;10.53;9.53;;;17.10;1.00;;;;;;5086786;28;20460;-57
2021/08/12 02:33:08;;;;;;;10.03;9.13;;;17.10;1.00;;;;;;5079967;28;20495;-57
2021/08/12 02:35:35;;;;;;;11.27;10.13;;;17.00;1.00;;;;;;5090846;28;20535;-58
2021/08/12 02:38:02;;;;;;;10.37;9.33;;;16.90;1.00;;;;;;5088621;28;20523;-58
2021/08/12 02:40:30;;;;;;;11.23;10.23;;;16.90;1.00;;;;;;5092780;28;20449;-58
2021/08/12 02:42:56;;;;;;;11.00;10.10;;;16.80;1.00;;;;;;5078529;28;20459;-61
2021/08/12 02:45:24;;;;;;;10.63;9.83;;;16.80;1.00;;;;;;5075445;28;20564;-57
2021/08/12 02:47:51;;;;;;;11.37;10.37;;;16.80;1.00;;;;;;5078822;28;20552;-57
2021/08/12 02:50:17;;;;;;;10.17;9.33;;;16.70;1.00;;;;;;5073382;28;20449;-57
2021/08/12 02:52:43;;;;;;;11.23;10.23;;;16.70;1.00;;;;;;5082314;28;20931;-58
2021/08/12 02:55:11;;;;;;;11.00;10.03;;;16.70;1.00;;;;;;5076849;28;20186;-58
2021/08/12 02:57:36;;;;;;;12.50;11.40;;;16.70;1.00;;;;;;5081777;28;20474;-58
2021/08/12 03:00:04;;;;;;;11.20;10.30;;;16.70;1.00;;;;;;5092326;28;20429;-57
2021/08/12 03:02:31;;;;;;;11.20;10.13;;;16.70;1.00;;;;;;5087503;28;20270;-58
2021/08/12 03:04:56;;;;;;;11.40;10.37;;;16.60;1.00;;;;;;5092444;28;20434;-59
2021/08/12 03:07:23;;;;;;;12.13;11.00;;;16.70;1.00;;;;;;5078891;28;20813;-58
2021/08/12 03:09:50;;;;;;;12.10;10.90;;;16.70;1.00;;;;;;5081654;28;20192;-57
2021/08/12 03:12:18;;;;;;;13.70;11.47;;;16.50;1.00;;;;;;5076363;28;20433;-58
2021/08/12 03:14:45;;;;;;;12.53;11.40;;;16.60;1.00;;;;;;5072287;28;20434;-58
2021/08/12 03:17:11;;;;;;;12.97;11.77;;;16.50;1.00;;;;;;5079054;28;20476;-58
2021/08/12 03:19:39;;;;;;;13.60;12.20;;;16.50;1.00;;;;;;5092075;28;20939;-58
2021/08/12 03:22:13;;;;;;;11.93;10.83;;;16.40;1.00;;;;;;5084067;28;20799;-58
2021/08/12 03:24:46;;;;;;;12.17;11.10;;;16.50;1.00;;;;;;5087118;28;20494;-58
2021/08/12 03:27:14;;;;;;;12.57;11.53;;;16.50;1.00;;;;;;5082187;28;20429;-57
2021/08/12 03:29:41;;;;;;;11.60;10.50;;;16.40;1.00;;;;;;5081716;28;20449;-58
2021/08/12 03:32:07;;;;;;;10.90;9.90;;;16.40;1.00;;;;;;5076788;28;20868;-57
2021/08/12 03:34:34;;;;;;;12.90;11.80;;;16.40;1.00;;;;;;5072067;28;20517;-57
2021/08/12 03:37:00;;;;;;;12.20;11.10;;;16.50;1.00;;;;;;5078111;28;20484;-57
2021/08/12 03:39:26;;;;;;;12.23;10.93;;;16.50;1.00;;;;;;5081523;28;20433;-57
2021/08/12 03:41:52;;;;;;;12.30;11.20;;;16.50;1.00;;;;;;5081858;28;20491;-57
2021/08/12 03:44:18;;;;;;;13.07;11.77;;;16.50;1.00;;;;;;5077206;28;20261;-58
2021/08/12 03:46:44;;;;;;;10.63;9.83;;;16.50;1.00;;;;;;5088133;28;20252;-58
2021/08/12 03:49:10;;;;;;;13.53;11.90;;;16.50;1.00;;;;;;5091391;28;20456;-59
2021/08/12 03:51:35;;;;;;;12.33;11.13;;;16.40;1.00;;;;;;5089155;28;20217;-58
2021/08/12 03:54:01;;;;;;;12.90;11.80;;;16.40;1.00;;;;;;5089542;28;20475;-57
2021/08/12 03:56:26;;;;;;;13.30;12.00;;;16.40;1.00;;;;;;5091289;28;20494;-58
2021/08/12 03:58:52;;;;;;;13.50;12.30;;;16.40;1.00;;;;;;5088220;28;20596;-59
2021/08/12 04:01:18;;;;;;;12.50;11.43;;;16.40;1.00;;;;;;5080861;28;20236;-59
2021/08/12 04:03:43;;;;;;;13.50;12.10;;;16.40;1.00;;;;;;5074038;28;20232;-58
2021/08/12 04:06:09;;;;;;;12.23;11.13;;;16.40;1.00;;;;;;5089589;28;20673;-58
2021/08/12 04:08:35;;;;;;;12.07;11.00;;;16.50;1.00;;;;;;5080527;28;20211;-58
2021/08/12 04:11:01;;;;;;;11.97;10.93;;;16.60;1.00;;;;;;5090967;28;20217;-59
2021/08/12 04:13:27;;;;;;;13.90;10.97;;;16.60;1.00;;;;;;5079443;28;20524;-58
2021/08/12 04:15:54;;;;;;;12.60;11.50;;;16.60;1.00;;;;;;5084292;28;20499;-59
2021/08/12 04:18:19;;;;;;;11.70;10.50;;;16.60;1.00;;;;;;5087426;28;20209;-59
2021/08/12 04:20:45;;;;;;;12.70;11.50;;;16.70;1.00;;;;;;5090171;28;20440;-58
2021/08/12 04:23:10;;;;;;;13.80;12.50;;;16.70;1.00;;;;;;5082954;28;20777;-58
2021/08/12 04:25:36;;;;;;;12.17;11.07;;;16.70;1.00;;;;;;5079620;28;20257;-58
2021/08/12 04:28:02;;;;;;;12.33;11.33;;;16.70;1.00;;;;;;5074696;28;20235;-59
2021/08/12 04:30:28;;;;;;;12.47;11.30;;;16.80;1.00;;;;;;5082222;28;20187;-58
2021/08/12 04:32:53;;;;;;;12.23;11.17;;;16.80;1.00;;;;;;5080087;28;20453;-57
2021/08/12 04:35:19;;;;;;;13.40;12.20;;;16.80;1.00;;;;;;5083242;28;20179;-58
2021/08/12 04:37:45;;;;;;;13.20;11.53;;;16.70;1.00;;;;;;5074288;28;20195;-59
2021/08/12 04:40:16;;;;;;;11.43;10.43;;;16.70;1.00;;;;;;5087702;28;20171;-57
2021/08/12 04:42:42;;;;;;;12.70;11.60;;;16.70;1.00;;;;;;5079512;28;20191;-57
2021/08/12 04:45:08;;;;;;;12.10;10.90;;;16.80;1.00;;;;;;5084775;28;20444;-57
2021/08/12 04:47:34;;;;;;;12.23;11.23;;;16.80;1.00;;;;;;5090505;28;20491;-57
2021/08/12 04:49:59;;;;;;;11.97;10.97;;;16.90;1.00;;;;;;5086959;28;20465;-57
2021/08/12 04:52:25;;;;;;;12.50;11.40;;;17.00;1.00;;;;;;5084380;28;20711;-59
2021/08/12 04:54:51;;;;;;;12.83;11.63;;;17.00;1.00;;;;;;5084979;28;20190;-57
2021/08/12 04:57:16;;;;;;;12.90;11.70;;;17.00;1.00;;;;;;5090710;28;20187;-58
2021/08/12 04:59:42;;;;;;;12.40;11.40;;;17.00;1.00;;;;;;5074704;28;20183;-58
2021/08/12 05:02:07;;;;;;;12.17;11.00;;;17.10;1.00;;;;;;5071133;28;20187;-58
2021/08/12 05:04:33;;;;;;;12.20;11.20;;;19.80;1.00;;;;;;5073505;28;20180;-58
2021/08/12 05:06:59;;;;;;;12.03;10.83;;;;;;;;;;5071926;28;20188;-57
2021/08/12 05:09:24;;;;;;;12.67;11.67;;;17.20;1.00;;;;;;5090074;28;20230;-57
2021/08/12 05:11:50;;;;;;;12.90;11.77;;;17.30;1.00;;;;;;5089991;28;20437;-58
2021/08/12 05:14:16;;;;;;;13.43;12.30;;;17.30;1.00;;;;;;5070761;28;20171;-59
2021/08/12 05:16:41;;;;;;;12.07;10.87;;;17.30;1.00;;;;;;5082064;28;20245;-58
2021/08/12 05:19:07;;;;;;;12.70;11.60;;;17.40;1.00;;;;;;5081582;28;20195;-57
2021/08/12 05:21:32;;;;;;;12.70;11.60;;;17.40;1.00;;;;;;5074258;28;20272;-59
2021/08/12 05:23:58;;;;;;;12.67;11.63;;;17.40;1.00;;;;;;5082231;28;20726;-58
2021/08/12 05:26:23;;;;;;;12.40;11.33;;;17.60;1.00;;;;;;5093837;28;20582;-58
2021/08/12 05:28:49;;;;;;;11.80;10.80;;;17.60;1.00;;;;;;5085651;28;20255;-57
2021/08/12 05:31:15;;;;;;;12.27;11.20;;;17.60;1.00;;;;;;5089894;28;20250;-57
2021/08/12 05:33:41;;;;;;;13.07;11.77;;;17.80;1.00;;;;;;5077723;28;20184;-58
2021/08/12 05:36:06;;;;;;;11.97;10.93;;;17.90;1.00;;;;;;5075327;28;20445;-59
2021/08/12 05:38:32;;;;;;;12.23;11.00;;;17.90;1.00;;;;;;5090786;28;20186;-58
2021/08/12 05:40:58;;;;;;;11.83;10.83;;;18.00;1.00;;;;;;5083152;28;20244;-58
2021/08/12 05:43:27;;;;;;;11.70;10.70;;;18.20;1.00;;;;;;5088344;28;20317;-58
2021/08/12 05:45:53;;;;;;;11.20;10.10;;;18.20;1.00;;;;;;5078811;28;20436;-58
2021/08/12 05:48:20;;;;;;;10.43;9.53;;;18.30;1.00;;;;;;5093067;28;20463;-59
2021/08/12 05:50:46;;;;;;;11.30;10.40;;;18.40;1.00;;;;;;5081914;28;20466;-57
2021/08/12 05:53:14;;;;;;;11.40;10.50;;;18.60;1.00;;;;;;5083257;28;21026;-57
2021/08/12 05:55:40;;;;;;;11.33;10.43;;;18.80;1.00;;;;;;5075824;28;20487;-59
2021/08/12 05:58:05;;;;;;;12.43;10.83;;;18.80;1.00;;;;;;5074317;28;20441;-58
2021/08/12 06:00:31;;;;;;;12.10;10.80;;;18.90;1.00;;;;;;5083469;28;20260;-58
2021/08/12 06:03:06;;;;;;;13.40;9.73;;;18.90;1.00;;;;;;5076275;28;20187;-59
2021/08/12 06:05:33;;;;;;;17.63;10.53;;;19.10;1.00;;;;;;5084513;28;20183;-58
2021/08/12 06:08:01;;;;;;;9.43;8.63;;;19.20;1.00;;;;;;5093465;28;20543;-58
2021/08/12 06:10:27;;;;;;;10.60;9.60;;;19.30;1.00;;;;;;5089595;28;20440;-58
2021/08/12 06:12:53;;;;;;;10.87;9.77;;;19.40;1.00;;;;;;5077058;28;20768;-58
2021/08/12 06:15:19;;;;;;;10.17;9.37;;;19.50;1.00;;;;;;5067099;28;20262;-58
2021/08/12 06:17:45;;;;;;;10.03;9.00;;;19.60;1.00;;;;;;5085712;28;21101;-59
2021/08/12 06:20:11;;;;;;;10.13;9.13;;;19.60;1.00;;;;;;5071640;28;20180;-58
2021/08/12 06:22:36;;;;;;;9.30;8.50;;;19.70;1.00;;;;;;5086188;28;20187;-59
2021/08/12 06:25:03;;;;;;;11.03;8.90;;;19.80;1.00;;;;;;5078744;28;20447;-58
2021/08/12 06:27:28;;;;;;;13.17;8.77;;;19.80;1.00;;;;;;5082972;28;20180;-60
2021/08/12 06:29:54;;;;;;;10.17;8.80;;;20.00;1.00;;;;;;5092196;28;20432;-58
2021/08/12 06:32:20;;;;;;;14.37;8.63;;;20.10;1.00;;;;;;5091077;28;20269;-58
2021/08/12 06:34:45;;;;;;;10.47;8.50;;;20.10;1.00;;;;;;5081579;28;20698;-59
2021/08/12 06:37:10;;;;;;;8.73;7.93;;;20.20;1.00;;;;;;5073936;28;20198;-60
2021/08/12 06:39:36;;;;;;;9.90;9.00;;;20.40;1.00;;;;;;5072218;28;20244;-59
2021/08/12 06:42:02;;;;;;;8.90;8.17;;;20.50;1.00;;;;;;5072866;28;20191;-58
2021/08/12 06:44:27;;;;;;;8.80;8.07;;;20.60;1.00;;;;;;5073508;28;20710;-59
2021/08/12 06:46:53;;;;;;;9.53;8.40;;;20.60;1.00;;;;;;5079749;28;20190;-60
2021/08/12 06:49:18;;;;;;;8.70;7.97;;;20.70;1.00;;;;;;5090340;28;20633;-60
2021/08/12 06:51:44;;;;;;;8.67;7.90;;;20.90;1.00;;;;;;5087990;28;20190;-58
2021/08/12 06:54:09;;;;;;;8.50;7.80;;;21.00;1.00;;;;;;5082155;28;20210;-60
2021/08/12 06:56:36;;;;;;;8.40;7.70;;;21.20;1.00;;;;;;5074915;28;20663;-59
2021/08/12 06:59:02;;;;;;;8.17;7.00;;;21.30;1.00;;;;;;5080951;28;20175;-60
2021/08/12 07:01:27;;;;;;;8.67;7.87;;;21.40;1.00;;;;;;5092333;28;20439;-60
2021/08/12 07:03:54;;;;;;;8.00;7.20;;;21.50;1.00;;;;;;5090667;28;20278;-60
2021/08/12 07:06:19;;;;;;;7.40;6.80;;;21.60;1.00;;;;;;5083021;28;20200;-58
2021/08/12 07:08:45;;;;;;;8.13;7.53;;;21.80;1.00;;;;;;5089096;28;20457;-60
2021/08/12 07:11:10;;;;;;;9.03;7.90;;;21.80;1.00;;;;;;5071331;28;20270;-59
2021/08/12 07:13:36;;;;;;;8.37;7.53;;;22.00;1.00;;;;;;5072095;28;20195;-60
2021/08/12 07:16:02;;;;;;;7.63;6.97;;;22.10;1.00;;;;;;5091756;28;20225;-59
2021/08/12 07:18:27;;;;;;;7.30;6.60;;;22.10;1.00;;;;;;5092249;28;20274;-59
2021/08/12 07:20:53;;;;;;;8.00;7.27;;;22.20;1.00;;;;;;5091896;28;20190;-59
2021/08/12 07:23:18;;;;;;;7.83;7.13;;;22.30;1.00;;;;;;5092278;28;20228;-59
2021/08/12 07:25:44;;;;;;;7.57;6.97;;;22.60;1.00;;;;;;5092038;28;20721;-60
2021/08/12 07:28:12;;;;;;;8.43;6.83;;;22.80;1.00;;;;;;5091843;28;20203;-60
2021/08/12 07:30:38;;;;;;;7.97;7.17;;;23.00;1.00;;;;;;5091796;28;20253;-59
2021/08/12 07:33:03;;;;;;;7.87;7.07;;;23.00;1.00;;;;;;5089636;28;20520;-59
2021/08/12 07:35:29;;;;;;;7.00;6.50;;;23.00;1.00;;;;;;5070543;28;20168;-59
2021/08/12 07:37:55;;;;;;;7.50;6.77;;;23.10;1.00;;;;;;5071425;28;20175;-59
2021/08/12 07:40:20;;;;;;;9.13;6.67;;;23.10;1.00;;;;;;5071650;28;20548;-60
2021/08/12 07:42:46;;;;;;;7.80;7.03;;;23.10;1.00;;;;;;5080709;28;20651;-59
2021/08/12 07:45:11;;;;;;;6.80;6.20;;;23.20;1.00;;;;;;5078427;28;20187;-60
2021/08/12 07:47:37;;;;;;;7.50;6.90;;;23.40;1.00;;;;;;5078096;28;20249;-59
2021/08/12 07:50:11;;;;;;;7.10;6.50;;;23.60;1.00;;;;;;5071132;28;20175;-59
2021/08/12 07:52:41;;;;;;;7.27;6.63;;;23.60;1.00;;;;;;5085844;28;20179;-59
2021/08/12 07:55:08;;;;;;;7.30;6.70;;;23.80;1.00;;;;;;5081321;28;20569;-59
2021/08/12 07:57:33;;;;;;;7.03;6.40;;;24.00;1.00;;;;;;5071585;28;20956;-60
2021/08/12 07:59:59;;;;;;;7.07;6.57;;;24.20;1.00;;;;;;5088038;28;20520;-60
2021/08/12 08:02:24;;;;;;;7.13;6.50;;;24.50;1.00;;;;;;5091588;28;20182;-59
2021/08/12 08:04:50;;;;;;;7.20;6.07;;;24.50;1.00;;;;;;5091425;28;20219;-60
2021/08/12 08:07:15;;;;;;;6.87;6.27;;;24.60;1.00;;;;;;5091221;28;20190;-59
2021/08/12 08:09:41;;;;;;;7.63;6.70;;;24.70;1.00;;;;;;5091506;28;20209;-59
2021/08/12 08:12:07;;;;;;;7.73;7.03;;;24.90;1.00;;;;;;5091148;28;20541;-59
2021/08/12 08:14:32;;;;;;;6.90;6.30;;;25.00;1.00;;;;;;5083867;28;20207;-60
2021/08/12 08:16:58;;;;;;;6.90;6.30;;;25.00;1.00;;;;;;5070853;28;20276;-59
2021/08/12 08:19:23;;;;;;;6.03;5.53;;;25.00;1.00;;;;;;5070949;28;20188;-60
2021/08/12 08:21:50;;;;;;;6.67;6.07;;;25.00;1.00;;;;;;5071001;28;20207;-60
2021/08/12 08:24:15;;;;;;;6.27;5.67;;;25.00;1.00;;;;;;5080025;28;20459;-60
2021/08/12 08:26:41;;;;;;;6.40;5.90;;;25.00;1.00;;;;;;5091127;28;20602;-60
2021/08/12 08:29:06;;;;;;;6.87;5.93;;;25.30;1.00;;;;;;5090043;28;20715;-58
2021/08/12 08:31:32;;;;;;;5.70;5.20;;;25.60;1.00;;;;;;5070817;28;20309;-59
2021/08/12 08:33:59;;;;;;;6.30;5.80;;;25.80;1.00;;;;;;5075884;28;20660;-59
2021/08/12 08:36:25;;;;;;;7.20;5.70;;;25.90;1.00;;;;;;5072404;28;20794;-60
2021/08/12 08:38:52;;;;;;;7.17;6.50;;;25.90;1.00;;;;;;5070571;28;20983;-60
2021/08/12 08:41:18;;;;;;;5.90;5.40;;;25.90;1.00;;;;;;5070555;28;20468;-59
2021/08/12 08:43:45;;;;;;;5.60;5.20;;;25.90;1.00;;;;;;5074589;28;20477;-60
2021/08/12 08:46:12;;;;;;;5.90;5.40;;;25.90;1.00;;;;;;5069600;28;20433;-59
2021/08/12 08:48:40;;;;;;;5.20;4.80;;;26.00;1.00;;;;;;5070545;28;20812;-60
2021/08/12 08:51:08;;;;;;;5.53;4.70;;;26.20;1.00;;;;;;5077266;28;20436;-60
2021/08/12 08:53:38;;;;;;;5.93;5.40;;;26.50;1.00;;;;;;5094032;28;20520;-59
2021/08/12 08:56:04;;;;;;;5.37;4.87;;;26.60;1.00;;;;;;5094930;28;20954;-59
2021/08/12 08:58:30;;;;;;;4.97;4.57;;;26.80;1.00;;;;;;5093194;28;20483;-60
2021/08/12 09:00:56;;;;;;;5.07;4.67;;;26.90;1.00;;;;;;5094675;28;20468;-59
2021/08/12 09:03:21;;;;;;;5.20;4.70;;;26.90;1.00;;;;;;5094823;28;20653;-59
2021/08/12 09:05:47;;;;;;;5.63;5.00;;;27.00;1.00;;;;;;5094220;28;20182;-59
2021/08/12 09:08:12;;;;;;;6.70;5.77;;;27.10;1.00;;;;;;5094621;28;20239;-60
2021/08/12 09:10:38;;;;;;;4.47;4.07;;;27.10;1.00;;;;;;5094422;28;20180;-59
2021/08/12 09:13:06;;;;;;;4.83;4.43;;;27.10;1.00;;;;;;5094394;28;20167;-60
2021/08/12 09:15:39;;;;;;;5.10;4.70;;;27.10;1.00;;;;;;5093778;28;20177;-60
2021/08/12 09:18:19;;;;;;;4.70;4.30;;;27.10;1.00;;;;;;5094613;28;20432;-59
2021/08/12 09:20:46;;;;;;;5.07;4.67;;;27.20;1.00;;;;;;5094076;28;20437;-60
2021/08/12 09:23:13;;;;;;;4.83;4.30;;;27.40;1.00;;;;;;5094504;28;20886;-59
2021/08/12 09:25:48;;;;;;;4.00;3.70;;;27.50;1.00;;;;;;5093973;28;20439;-60
2021/08/12 09:28:25;;;;;;;4.50;4.10;;;27.40;1.00;;;;;;5094077;28;20858;-59
2021/08/12 09:31:00;;;;;;;5.50;3.83;;;27.60;1.00;;;;;;5093762;28;20489;-59
2021/08/12 09:33:28;;;;;;;4.47;4.07;;;27.80;1.00;;;;;;5094252;28;20427;-60
2021/08/12 09:35:54;;;;;;;5.33;4.17;;;28.10;1.00;;;;;;5093834;28;20443;-61
2021/08/12 09:38:24;;;;;;;5.40;4.70;;;28.30;1.00;;;;;;5094198;28;20950;-59
2021/08/12 09:41:02;;;;;;;4.57;4.27;;;28.40;1.00;;;;;;5085021;28;20425;-59
2021/08/12 09:43:34;;;;;;;3.80;3.50;;;28.30;1.00;;;;;;5076217;28;20419;-59
2021/08/12 09:46:00;;;;;;;4.67;4.20;;;28.50;1.00;;;;;;5073619;28;20515;-60
2021/08/12 09:48:27;;;;;;;4.03;3.73;;;28.50;1.00;;;;;;5073637;28;20969;-60
2021/08/12 09:51:00;;;;;;;4.10;3.60;;;28.60;1.00;;;;;;5073245;28;20179;-60
2021/08/12 09:53:26;;;;;;;4.37;3.43;;;28.80;1.00;;;;;;5073597;28;20429;-60
2021/08/12 09:55:52;;;;;;;5.43;4.23;;;28.80;1.00;;;;;;5074740;28;20405;-60
2021/08/12 09:58:19;;;;;;;5.50;3.37;;;28.90;1.00;;;;;;5093262;28;20440;-60
2021/08/12 10:00:49;;;;;;;3.70;3.40;;;28.60;1.00;;;;;;5093107;28;20202;-59
2021/08/12 10:03:32;;;;;;;3.43;3.23;;;28.50;1.00;;;;;;5092676;28;20444;-59
2021/08/12 10:05:59;;;;;;;4.60;4.20;;;28.70;1.00;;;;;;5080231;28;20542;-60
2021/08/12 10:08:34;;;;;;;3.77;3.47;;;28.70;1.00;;;;;;5073419;28;20456;-60
2021/08/12 10:11:19;;;;;;;3.60;3.30;;;28.80;1.00;;;;;;5072947;28;20758;-60
2021/08/12 10:13:46;;;;;;;4.83;3.50;;;29.00;1.00;;;;;;5080405;28;20430;-61
2021/08/12 10:16:15;;;;;;;3.83;3.53;;;29.00;1.00;;;;;;5072783;28;20461;-60
2021/08/12 10:18:42;;;;;;;3.50;3.20;;;28.80;1.00;;;;;;5073122;28;20536;-60
2021/08/12 10:21:10;;;;;;;3.80;3.50;;;28.60;1.00;;;;;;5072946;28;20456;-60
2021/08/12 10:23:37;;;;;;;5.07;3.63;;;28.40;1.00;;;;;;5072786;28;20434;-60
2021/08/12 10:26:03;;;;;;;3.40;3.00;;;28.30;1.00;;;;;;5083957;28;20510;-61
2021/08/12 10:28:33;;;;;;;3.90;3.40;;;28.40;1.00;;;;;;5093009;28;20602;-61
2021/08/12 10:31:01;;;;;;;3.50;3.20;;;28.70;1.00;;;;;;5092715;28;20428;-60
2021/08/12 10:33:27;;;;;;;3.97;3.67;;;29.00;1.00;;;;;;5091533;28;20444;-60
2021/08/12 10:35:55;;;;;;;3.67;3.37;;;29.30;1.00;;;;;;5072640;28;20430;-60
2021/08/12 10:38:20;;;;;;;4.10;3.70;;;29.30;1.00;;;;;;5072392;28;20465;-60
2021/08/12 10:40:48;;;;;;;3.30;3.07;;;29.30;1.00;;;;;;5073059;28;20434;-60
2021/08/12 10:43:19;;;;;;;3.97;3.60;;;29.10;1.00;;;;;;5077086;28;21678;-60
2021/08/12 10:45:56;;;;;;;3.50;3.20;;;28.80;1.00;;;;;;5087729;28;20446;-62
2021/08/12 10:48:23;;;;;;;4.80;3.93;;;28.90;1.00;;;;;;5092599;28;20828;-60
2021/08/12 10:51:07;;;;;;;3.67;3.37;;;29.20;1.00;;;;;;5084649;28;20429;-61
2021/08/12 10:53:33;;;;;;;4.00;3.60;;;30.00;1.00;;;;;;5091580;28;20455;-60
2021/08/12 10:56:02;;;;;;;4.30;3.90;;;29.30;1.00;;;;;;5092578;28;20432;-60
2021/08/12 10:58:31;;;;;;;5.30;4.50;;;29.40;1.00;;;;;;5092192;28;20843;-60
2021/08/12 11:00:59;;;;;;;4.33;3.93;;;29.30;1.00;;;;;;5092256;28;20559;-60
2021/08/12 11:03:33;;;;;;;4.60;4.20;;;29.00;1.00;;;;;;5092113;28;20464;-60
2021/08/12 11:06:03;;;;;;;4.50;4.20;;;29.00;1.00;;;;;;5092376;28;20432;-59
2021/08/12 11:08:51;;;;;;;4.40;4.00;;;29.20;1.00;;;;;;5091931;28;20453;-61
2021/08/12 11:11:19;;;;;;;4.90;3.73;;;29.10;1.00;;;;;;5078533;28;20422;-60
2021/08/12 11:13:45;;;;;;;4.00;3.60;;;28.60;1.00;;;;;;5084308;28;20433;-60
2021/08/12 11:16:10;;;;;;;4.47;4.07;;;28.30;1.00;;;;;;5071484;28;20519;-60
2021/08/12 11:18:53;;;;;;;4.27;3.87;;;28.50;1.00;;;;;;5071674;28;20215;-61
2021/08/12 11:21:31;;;;;;;4.90;4.50;;;28.90;1.00;;;;;;5072944;28;20183;-59
2021/08/12 11:24:02;;;;;;;4.00;3.57;;;28.60;1.00;;;;;;5071705;28;20456;-59
2021/08/12 11:26:46;;;;;;;5.13;3.93;;;28.80;1.00;;;;;;5071541;28;20448;-60
2021/08/12 11:31:49;;;;;;;5.37;4.20;;;28.70;1.00;;;;;;5092115;28;20491;-60
2021/08/12 11:34:28;;;;;;;3.73;3.43;;;28.50;1.00;;;;;;5091724;28;20535;-59
2021/08/12 11:37:19;;;;;;;4.40;4.00;;;28.50;1.00;;;;;;5071659;28;20191;-60
2021/08/12 11:40:05;;;;;;;5.40;4.50;;;28.30;1.00;;;;;;5071672;28;20429;-59
2021/08/12 11:42:37;;;;;;;4.53;4.13;;;28.20;1.00;;;;;;5073878;28;20423;-59
2021/08/12 11:45:19;;;;;;;4.67;4.27;;;28.30;1.00;;;;;;5077935;28;20495;-60
2021/08/12 11:47:52;;;;;;;3.90;3.60;;;28.50;1.00;;;;;;5070993;28;20434;-59
2021/08/12 11:50:18;;;;;;;5.07;4.57;;;28.30;1.00;;;;;;5071419;28;20472;-60
2021/08/12 11:52:49;;;;;;;4.13;3.83;;;28.20;1.00;;;;;;5071265;28;20458;-60
2021/08/12 11:55:19;;;;;;;4.43;4.10;;;28.10;1.00;;;;;;5071303;28;20711;-59
2021/08/12 11:57:51;;;;;;;4.03;3.73;;;28.00;1.00;;;;;;5089872;28;20447;-60
2021/08/12 12:00:20;;;;;;;5.00;4.50;;;27.90;1.00;;;;;;5091097;28;20854;-60
2021/08/12 12:02:53;;;;;;;4.73;3.93;;;28.00;1.00;;;;;;5091019;28;20800;-61
2021/08/12 12:05:20;;;;;;;4.90;4.50;;;28.10;1.00;;;;;;5090491;28;20527;-59
2021/08/12 12:07:53;;;;;;;4.57;4.17;;;28.30;1.00;;;;;;5089801;28;20820;-60
2021/08/12 12:10:23;;;;;;;4.40;4.00;;;28.20;1.00;;;;;;5091423;28;20437;-60
2021/08/12 12:12:48;;;;;;;4.30;4.00;;;28.30;1.00;;;;;;5091028;28;20425;-59
2021/08/12 12:15:44;;;;;;;5.07;4.67;;;28.40;1.00;;;;;;5090887;28;20451;-59
2021/08/12 12:18:12;;;;;;;4.27;3.87;;;28.50;1.00;;;;;;5091367;28;20266;-59
2021/08/12 12:20:40;;;;;;;4.67;4.27;;;28.40;1.00;;;;;;5090088;28;21307;-60
2021/08/12 12:23:10;;;;;;;6.00;4.13;;;28.30;1.00;;;;;;5086044;28;20441;-60
2021/08/12 12:25:39;;;;;;;4.87;4.30;;;28.20;1.00;;;;;;5070919;28;20415;-59
2021/08/12 12:28:06;;;;;;;4.70;4.30;;;27.90;1.00;;;;;;5069893;28;20843;-60
2021/08/12 12:30:33;;;;;;;4.57;4.10;;;28.10;1.00;;;;;;5071863;28;20399;-59
2021/08/12 12:33:09;;;;;;;5.07;4.57;;;28.20;1.00;;;;;;5071175;28;20441;-59
2021/08/12 12:35:46;;;;;;;4.20;3.87;;;28.40;1.00;;;;;;5076524;28;20411;-60
2021/08/12 12:38:16;;;;;;;5.70;4.70;;;28.60;1.00;;;;;;5070721;28;20442;-61
2021/08/12 12:40:43;;;;;;;6.47;4.70;;;28.80;1.00;;;;;;5070351;28;20434;-60
2021/08/12 12:43:09;;;;;;;5.50;5.00;;;28.80;1.00;;;;;;5070362;28;20506;-60
2021/08/12 12:45:49;;;;;;;4.77;4.37;;;29.20;1.00;;;;;;5078876;28;20430;-60
2021/08/12 12:48:17;;;;;;;5.40;4.90;;;29.30;1.00;;;;;;5091090;28;20488;-60
2021/08/12 12:50:45;;;;;;;5.20;4.57;;;29.20;1.00;;;;;;5090931;28;20406;-60
2021/08/12 12:53:11;;;;;;;5.50;4.40;;;29.30;1.00;;;;;;5090561;28;20408;-60
2021/08/12 12:55:42;;;;;;;6.63;4.30;;;29.20;1.00;;;;;;5090977;28;20516;-60
2021/08/12 12:58:18;;;;;;;5.20;4.33;;;29.20;1.00;;;;;;5090659;28;20880;-60